createdAt,value
2022-09-28T00:01:51.979Z,12.57
2022-09-28T00:04:18.355Z,7.90
2022-09-28T00:06:44.623Z,9.55
2022-09-28T00:09:10.863Z,13.23
2022-09-28T00:11:37.526Z,9.85
2022-09-28T00:14:04.152Z,10.98
2022-09-28T00:16:31.788Z,11.18
2022-09-28T00:18:58.447Z,9.95
2022-09-28T00:21:26.154Z,15.53
2022-09-28T00:24:11.962Z,13.40
2022-09-28T00:26:41.188Z,8.25
2022-09-28T00:29:08.444Z,10.88
2022-09-28T00:31:35.294Z,11.50
2022-09-28T00:34:02.062Z,13.57
2022-09-28T00:36:29.224Z,13.40
2022-09-28T00:38:56.397Z,11.50
2022-09-28T00:41:23.660Z,13.70
2022-09-28T00:43:50.308Z,10.82
2022-09-28T00:46:31.350Z,11.32
2022-09-28T00:48:59.776Z,9.10
2022-09-28T00:51:26.677Z,11.70
2022-09-28T00:53:53.454Z,8.75
2022-09-28T00:56:21.403Z,11.88
2022-09-28T00:58:50.258Z,12.25
2022-09-28T01:01:16.610Z,9.35
2022-09-28T01:03:45.488Z,14.52
2022-09-28T01:06:16.858Z,14.77
2022-09-28T01:08:44.567Z,12.73
2022-09-28T01:11:10.864Z,10.40
2022-09-28T01:13:37.587Z,16.67
2022-09-28T01:16:09.705Z,10.27
2022-09-28T01:19:00.290Z,11.38
2022-09-28T01:21:27.174Z,10.38
2022-09-28T01:23:53.428Z,11.38
2022-09-28T01:26:33.211Z,10.77
2022-09-28T01:29:02.962Z,9.63
2022-09-28T01:31:31.083Z,13.60
2022-09-28T01:33:59.998Z,11.45
2022-09-28T01:36:58.908Z,13.88
2022-09-28T01:39:36.677Z,8.93
2022-09-28T01:42:10.398Z,7.93
2022-09-28T01:44:39.848Z,11.45
2022-09-28T01:47:07.983Z,9.50
2022-09-28T01:49:36.773Z,9.20
2022-09-28T01:52:21.527Z,14.10
2022-09-28T01:54:51.951Z,9.77
2022-09-28T01:57:21.902Z,11.77
2022-09-28T02:00:04.411Z,9.00
2022-09-28T02:02:33.312Z,9.15
2022-09-28T02:05:07.942Z,9.30
2022-09-28T02:07:38.287Z,12.07
2022-09-28T02:10:24.751Z,12.53
2022-09-28T02:13:01.390Z,9.63
2022-09-28T02:15:33.831Z,18.00
2022-09-28T02:18:00.140Z,9.33
2022-09-28T02:20:26.409Z,9.90
2022-09-28T02:22:55.685Z,12.20
2022-09-28T02:25:35.217Z,10.73
2022-09-28T02:28:02.760Z,14.20
2022-09-28T02:30:33.822Z,11.83
2022-09-28T02:33:04.397Z,9.03
2022-09-28T02:35:30.663Z,13.43
2022-09-28T02:37:57.474Z,10.27
2022-09-28T02:40:25.292Z,12.37
2022-09-28T02:43:03.790Z,8.27
2022-09-28T02:45:48.417Z,9.17
2022-09-28T02:48:42.732Z,7.33
2022-09-28T02:51:18.725Z,8.60
2022-09-28T02:56:20.259Z,5.57
2022-09-28T03:01:14.215Z,5.13
2022-09-28T03:03:43.243Z,7.93
2022-09-28T03:06:13.411Z,8.47
2022-09-28T03:08:45.256Z,6.80
2022-09-28T03:11:22.985Z,7.20
2022-09-28T03:13:49.742Z,6.43
2022-09-28T03:16:17.962Z,7.80
2022-09-28T03:18:44.769Z,6.17
2022-09-28T03:21:11.869Z,6.88
2022-09-28T03:23:38.378Z,4.68
2022-09-28T03:26:04.732Z,5.87
2022-09-28T03:28:30.987Z,7.20
2022-09-28T03:30:57.243Z,6.17
2022-09-28T03:33:23.569Z,5.93
2022-09-28T03:35:50.434Z,5.03
2022-09-28T03:38:18.142Z,4.80
2022-09-28T03:40:44.850Z,4.67
2022-09-28T03:43:11.160Z,5.55
2022-09-28T03:45:37.502Z,7.90
2022-09-28T03:48:04.254Z,4.53
2022-09-28T03:50:30.621Z,7.07
2022-09-28T03:53:01.370Z,4.03
2022-09-28T03:55:27.645Z,5.97
2022-09-28T03:57:55.604Z,5.47
2022-09-28T04:00:22.028Z,5.87
2022-09-28T04:02:48.301Z,3.93
2022-09-28T04:05:14.681Z,3.63
2022-09-28T04:07:40.992Z,4.63
2022-09-28T04:10:07.551Z,4.47
2022-09-28T04:12:33.815Z,6.20
2022-09-28T04:15:00.077Z,6.67
2022-09-28T04:17:26.378Z,4.00
2022-09-28T04:19:52.640Z,6.90
2022-09-28T04:22:19.156Z,4.20
2022-09-28T04:24:46.405Z,6.50
2022-09-28T04:27:47.889Z,9.83
2022-09-28T04:30:14.183Z,5.73
2022-09-28T04:32:40.473Z,5.87
2022-09-28T04:35:07.004Z,4.53
2022-09-28T04:37:33.780Z,3.43
2022-09-28T04:40:00.223Z,3.43
2022-09-28T04:42:26.474Z,9.00
2022-09-28T04:44:52.765Z,3.27
2022-09-28T04:47:19.043Z,5.07
2022-09-28T04:49:45.318Z,8.27
2022-09-28T04:52:17.207Z,5.63
2022-09-28T04:54:44.470Z,4.85
2022-09-28T04:57:10.751Z,4.03
2022-09-28T04:59:37.601Z,6.73
2022-09-28T05:02:04.165Z,3.50
2022-09-28T05:04:30.989Z,4.40
2022-09-28T05:06:57.574Z,6.27
2022-09-28T05:09:23.884Z,4.03
2022-09-28T05:11:50.394Z,4.23
2022-09-28T05:14:16.695Z,10.03
2022-09-28T05:16:42.973Z,6.50
2022-09-28T05:19:10.171Z,5.70
2022-09-28T05:21:36.442Z,5.23
2022-09-28T05:24:07.290Z,5.50
2022-09-28T05:26:34.329Z,5.20
2022-09-28T05:29:00.667Z,6.80
2022-09-28T05:31:30.214Z,4.63
2022-09-28T05:33:56.495Z,3.83
2022-09-28T05:36:23.337Z,4.40
2022-09-28T05:38:49.591Z,3.23
2022-09-28T05:41:15.991Z,4.00
2022-09-28T05:43:44.067Z,4.27
2022-09-28T05:46:10.366Z,3.80
2022-09-28T05:48:36.808Z,12.30
2022-09-28T05:51:03.072Z,4.27
2022-09-28T05:53:29.443Z,4.83
2022-09-28T05:55:59.381Z,5.97
2022-09-28T05:58:25.623Z,4.93
2022-09-28T06:00:56.024Z,3.88
2022-09-28T06:03:22.381Z,9.00
2022-09-28T06:05:48.709Z,5.75
2022-09-28T06:08:15.009Z,4.20
2022-09-28T06:10:41.470Z,7.87
2022-09-28T06:13:08.128Z,5.10
2022-09-28T06:15:35.284Z,3.63
2022-09-28T06:18:05.871Z,5.28
2022-09-28T06:20:36.583Z,4.37
2022-09-28T06:23:02.912Z,4.57
2022-09-28T06:25:29.441Z,7.83
2022-09-28T06:28:00.255Z,11.27
2022-09-28T06:30:27.410Z,3.50
2022-09-28T06:32:57.582Z,4.20
2022-09-28T06:35:25.327Z,3.47
2022-09-28T06:37:52.040Z,3.47
2022-09-28T06:40:18.934Z,3.33
2022-09-28T06:42:45.337Z,4.70
2022-09-28T06:45:11.700Z,5.90
2022-09-28T06:47:38.038Z,4.80
2022-09-28T06:50:12.290Z,7.78
2022-09-28T06:52:38.615Z,9.70
2022-09-28T06:55:05.358Z,5.40
2022-09-28T06:57:31.631Z,5.97
2022-09-28T06:59:57.882Z,4.03
2022-09-28T07:02:24.261Z,4.53
2022-09-28T07:04:50.542Z,3.90
2022-09-28T07:07:16.811Z,5.15
2022-09-28T07:09:48.150Z,7.95
2022-09-28T07:12:16.668Z,4.43
2022-09-28T07:14:47.889Z,4.30
2022-09-28T07:17:15.071Z,4.93
2022-09-28T07:19:41.658Z,6.05
2022-09-28T07:22:08.030Z,3.83
2022-09-28T07:24:34.334Z,4.57
2022-09-28T07:27:04.412Z,8.57
2022-09-28T07:29:30.658Z,4.10
2022-09-28T07:31:56.926Z,5.57
2022-09-28T07:34:23.618Z,4.03
2022-09-28T07:36:50.265Z,3.15
2022-09-28T07:39:16.506Z,3.13
2022-09-28T07:41:44.188Z,3.97
2022-09-28T07:44:10.517Z,4.85
2022-09-28T07:46:40.984Z,5.43
2022-09-28T07:49:09.999Z,4.15
2022-09-28T07:51:38.612Z,3.10
2022-09-28T07:54:05.775Z,3.00
2022-09-28T07:56:33.915Z,4.10
2022-09-28T07:59:00.250Z,5.20
2022-09-28T08:01:26.597Z,4.15
2022-09-28T08:03:56.158Z,4.15
2022-09-28T08:06:23.199Z,3.30
2022-09-28T08:08:50.271Z,4.10
2022-09-28T08:11:17.783Z,9.77
2022-09-28T08:13:45.689Z,3.78
2022-09-28T08:16:12.430Z,3.67
2022-09-28T08:18:38.785Z,4.57
2022-09-28T08:21:24.728Z,3.65
2022-09-28T08:23:51.268Z,3.65
2022-09-28T08:26:17.612Z,3.92
2022-09-28T08:28:45.015Z,6.45
2022-09-28T08:31:11.464Z,11.20
2022-09-28T08:33:37.741Z,3.33
2022-09-28T08:36:07.326Z,3.90
2022-09-28T08:38:33.847Z,4.10
2022-09-28T08:41:05.892Z,5.88
2022-09-28T08:43:32.197Z,3.70
2022-09-28T08:45:59.427Z,4.55
2022-09-28T08:48:48.544Z,3.97
2022-09-28T08:51:26.358Z,3.95
2022-09-28T08:53:52.595Z,3.38
2022-09-28T08:56:26.558Z,2.92
2022-09-28T08:58:56.407Z,7.97
2022-09-28T09:01:23.666Z,2.80
2022-09-28T09:03:50.091Z,4.28
2022-09-28T09:06:34.945Z,3.17
2022-09-28T09:09:09.907Z,4.45
2022-09-28T09:11:57.200Z,2.95
2022-09-28T09:14:41.825Z,3.10
2022-09-28T09:17:37.426Z,3.15
2022-09-28T09:20:12.892Z,3.60
2022-09-28T09:22:39.168Z,3.83
2022-09-28T09:25:41.066Z,3.17
2022-09-28T09:28:17.514Z,4.28
2022-09-28T09:30:49.807Z,3.20
2022-09-28T09:33:29.464Z,5.78
2022-09-28T09:36:04.141Z,2.97
2022-09-28T09:38:53.473Z,4.95
2022-09-28T09:41:35.307Z,3.10
2022-09-28T09:44:01.541Z,7.15
2022-09-28T09:46:27.818Z,3.05
2022-09-28T09:49:04.254Z,4.20
2022-09-28T09:51:50.221Z,3.42
2022-09-28T09:54:20.979Z,4.10
2022-09-28T09:56:49.900Z,3.78
2022-09-28T09:59:19.792Z,3.88
2022-09-28T10:01:47.078Z,2.60
2022-09-28T10:04:32.288Z,3.78
2022-09-28T10:07:03.851Z,3.10
2022-09-28T10:09:36.819Z,5.50
2022-09-28T10:12:04.115Z,2.90
2022-09-28T10:14:31.036Z,4.25
2022-09-28T10:16:57.908Z,3.08
2022-09-28T10:19:29.334Z,3.70
2022-09-28T10:21:58.510Z,5.55
2022-09-28T10:24:34.025Z,2.67
2022-09-28T10:27:05.536Z,2.47
2022-09-28T10:29:38.900Z,4.45
2022-09-28T10:32:17.167Z,3.08
2022-09-28T10:34:47.398Z,5.03
2022-09-28T10:37:16.306Z,2.47
2022-09-28T10:39:45.435Z,3.13
2022-09-28T10:42:12.914Z,2.33
2022-09-28T10:44:50.631Z,3.58
2022-09-28T10:47:19.069Z,3.58
2022-09-28T10:49:47.389Z,3.40
2022-09-28T10:52:32.619Z,2.45
2022-09-28T10:54:58.924Z,4.03
2022-09-28T10:57:35.735Z,3.15
2022-09-28T11:00:06.896Z,1.95
2022-09-28T11:02:36.612Z,4.20
2022-09-28T11:05:04.525Z,4.70
2022-09-28T11:07:32.253Z,3.42
2022-09-28T11:09:59.951Z,2.38
2022-09-28T11:12:28.267Z,4.28
2022-09-28T11:15:00.499Z,2.45
2022-09-28T11:17:40.409Z,3.38
2022-09-28T11:20:27.919Z,5.00
2022-09-28T11:22:59.090Z,2.65
2022-09-28T11:25:27.345Z,3.90
2022-09-28T11:27:53.702Z,2.45
2022-09-28T11:30:24.467Z,3.25
2022-09-28T11:32:52.149Z,3.28
2022-09-28T11:35:20.931Z,2.45
2022-09-28T11:37:53.252Z,3.45
2022-09-28T11:40:42.339Z,2.95
2022-09-28T11:43:14.414Z,2.90
2022-09-28T11:45:55.660Z,6.05
2022-09-28T11:48:27.643Z,3.15
2022-09-28T11:51:05.661Z,5.20
2022-09-28T11:53:37.061Z,7.45
2022-09-28T11:56:18.828Z,2.55
2022-09-28T11:58:50.142Z,3.10
2022-09-28T12:01:35.638Z,3.10
2022-09-28T12:04:06.587Z,3.17
2022-09-28T12:06:40.807Z,3.03
2022-09-28T12:09:13.467Z,2.90
2022-09-28T12:11:43.966Z,3.53
2022-09-28T12:14:14.976Z,3.42
2022-09-28T12:17:05.015Z,2.92
2022-09-28T12:20:00.192Z,2.97
2022-09-28T12:22:39.408Z,3.28
2022-09-28T12:25:10.367Z,2.70
2022-09-28T12:27:50.499Z,5.55
2022-09-28T12:30:25.633Z,2.50
2022-09-28T12:32:51.918Z,4.18
2022-09-28T12:35:36.687Z,2.22
2022-09-28T12:38:21.679Z,2.73
2022-09-28T12:40:57.585Z,2.80
2022-09-28T12:43:33.302Z,4.43
2022-09-28T12:46:11.594Z,3.00
2022-09-28T12:49:24.135Z,4.40
2022-09-28T12:51:57.605Z,4.32
2022-09-28T12:54:42.375Z,4.30
2022-09-28T12:57:25.936Z,2.13
2022-09-28T13:00:04.446Z,2.65
2022-09-28T13:02:30.733Z,3.60
2022-09-28T13:04:57.145Z,3.05
2022-09-28T13:07:42.797Z,3.55
2022-09-28T13:10:16.862Z,3.30
2022-09-28T13:12:49.114Z,2.58
2022-09-28T13:15:22.520Z,4.30
2022-09-28T13:17:55.602Z,2.10
2022-09-28T13:20:21.859Z,2.70
2022-09-28T13:22:54.982Z,3.17
2022-09-28T13:25:23.541Z,2.90
2022-09-28T13:28:00.935Z,2.67
2022-09-28T13:30:27.578Z,2.47
2022-09-28T13:32:56.211Z,2.00
2022-09-28T13:35:22.569Z,2.47
2022-09-28T13:38:08.969Z,3.58
2022-09-28T13:40:54.044Z,4.97
2022-09-28T13:43:28.274Z,3.55
2022-09-28T13:45:56.855Z,6.03
2022-09-28T13:48:32.808Z,4.22
2022-09-28T13:51:20.924Z,7.18
2022-09-28T13:53:56.180Z,2.63
2022-09-28T13:58:50.686Z,3.88
2022-09-28T14:01:22.969Z,3.03
2022-09-28T14:04:08.166Z,4.68
2022-09-28T14:06:34.451Z,5.45
2022-09-28T14:09:09.068Z,3.65
2022-09-28T14:11:35.708Z,6.80
2022-09-28T14:14:07.175Z,6.90
2022-09-28T14:16:34.721Z,3.30
2022-09-28T14:19:24.267Z,3.47
2022-09-28T14:22:13.857Z,3.10
2022-09-28T14:24:46.247Z,2.60
2022-09-28T14:27:24.534Z,5.70
2022-09-28T14:29:55.215Z,3.40
2022-09-28T14:32:22.561Z,2.72
2022-09-28T14:34:55.764Z,3.22
2022-09-28T14:37:48.993Z,3.63
2022-09-28T14:40:47.173Z,3.10
2022-09-28T14:43:23.054Z,2.50
2022-09-28T14:45:49.641Z,2.85
2022-09-28T14:48:20.319Z,3.40
2022-09-28T14:50:47.720Z,4.18
2022-09-28T14:53:19.486Z,3.33
2022-09-28T14:55:50.256Z,3.88
2022-09-28T14:58:22.436Z,3.42
2022-09-28T15:00:50.126Z,4.50
2022-09-28T15:03:17.123Z,4.03
2022-09-28T15:05:47.043Z,2.75
2022-09-28T15:08:13.531Z,3.75
2022-09-28T15:10:44.003Z,2.53
2022-09-28T15:13:20.731Z,3.38
2022-09-28T15:15:50.350Z,3.72
2022-09-28T15:18:16.725Z,3.70
2022-09-28T15:20:45.410Z,3.35
2022-09-28T15:23:25.755Z,5.05
2022-09-28T15:25:52.547Z,3.63
2022-09-28T15:28:22.048Z,4.00
2022-09-28T15:30:48.661Z,2.55
2022-09-28T15:33:46.792Z,5.10
2022-09-28T15:36:18.123Z,2.90
2022-09-28T15:38:46.192Z,3.63
2022-09-28T15:41:12.464Z,4.05
2022-09-28T15:43:38.782Z,3.03
2022-09-28T15:46:13.382Z,3.03
2022-09-28T15:48:55.218Z,3.28
2022-09-28T15:51:22.804Z,3.33
2022-09-28T15:54:04.129Z,3.53
2022-09-28T15:56:30.670Z,3.20
2022-09-28T15:59:15.492Z,3.50
2022-09-28T16:01:45.371Z,2.80
2022-09-28T16:04:30.449Z,3.78
2022-09-28T16:07:17.332Z,3.08
2022-09-28T16:10:02.789Z,4.05
2022-09-28T16:12:49.275Z,3.60
2022-09-28T16:15:24.784Z,3.50
2022-09-28T16:17:52.386Z,3.70
2022-09-28T16:20:22.412Z,4.45
2022-09-28T16:22:49.249Z,3.92
2022-09-28T16:25:23.788Z,3.50
2022-09-28T16:27:50.928Z,2.60
2022-09-28T16:30:24.773Z,2.78
2022-09-28T16:33:01.747Z,2.38
2022-09-28T16:35:50.318Z,7.15
2022-09-28T16:38:17.450Z,5.63
2022-09-28T16:40:46.298Z,3.38
2022-09-28T16:43:18.187Z,4.63
2022-09-28T16:45:44.491Z,3.13
2022-09-28T16:48:16.101Z,3.47
2022-09-28T16:50:42.360Z,2.70
2022-09-28T16:53:34.560Z,3.67
2022-09-28T16:56:01.517Z,4.80
2022-09-28T16:58:28.823Z,3.33
2022-09-28T17:00:55.491Z,3.80
2022-09-28T17:03:23.407Z,3.78
2022-09-28T17:05:50.675Z,7.32
2022-09-28T17:08:17.953Z,4.18
2022-09-28T17:13:39.020Z,6.03
2022-09-28T17:16:12.936Z,4.78
2022-09-28T17:18:39.618Z,6.32
2022-09-28T17:21:07.499Z,5.13
2022-09-28T17:23:33.760Z,20.85
2022-09-28T17:26:00.974Z,26.08
2022-09-28T17:28:28.457Z,19.63
2022-09-28T17:30:54.787Z,26.70
2022-09-28T17:33:21.145Z,14.13
2022-09-28T17:35:48.181Z,7.55
2022-09-28T17:38:15.551Z,5.82
2022-09-28T17:40:42.631Z,7.55
2022-09-28T17:43:09.211Z,5.00
2022-09-28T17:45:40.987Z,6.22
2022-09-28T17:48:11.188Z,3.97
2022-09-28T17:50:37.555Z,6.63
2022-09-28T17:53:06.357Z,6.57
2022-09-28T17:55:33.474Z,7.47
2022-09-28T17:58:04.259Z,4.40
2022-09-28T18:00:30.503Z,6.82
2022-09-28T18:02:57.742Z,7.07
2022-09-28T18:05:24.988Z,9.23
2022-09-28T18:07:52.012Z,5.18
2022-09-28T18:10:21.230Z,10.10
2022-09-28T18:12:47.940Z,4.55
2022-09-28T18:15:14.436Z,3.90
2022-09-28T18:17:40.943Z,3.83
2022-09-28T18:20:08.067Z,3.60
2022-09-28T18:22:34.438Z,4.63
2022-09-28T18:25:00.823Z,4.18
2022-09-28T18:27:30.351Z,3.50
2022-09-28T18:29:56.669Z,3.92
2022-09-28T18:32:23.552Z,4.25
2022-09-28T18:34:49.916Z,3.13
2022-09-28T18:37:16.227Z,4.53
2022-09-28T18:39:42.504Z,3.17
2022-09-28T18:42:09.538Z,3.47
2022-09-28T18:44:36.065Z,3.40
2022-09-28T18:47:02.380Z,3.70
2022-09-28T18:49:30.179Z,3.78
2022-09-28T18:51:56.488Z,6.15
2022-09-28T18:54:23.029Z,9.57
2022-09-28T18:56:51.170Z,3.65
2022-09-28T18:59:17.549Z,3.58
2022-09-28T19:01:43.939Z,5.70
2022-09-28T19:04:11.167Z,3.97
2022-09-28T19:06:40.620Z,3.78
2022-09-28T19:09:07.999Z,5.07
2022-09-28T19:11:36.671Z,3.65
2022-09-28T19:14:03.674Z,5.10
2022-09-28T19:16:30.756Z,3.40
2022-09-28T19:18:57.790Z,3.80
2022-09-28T19:21:24.474Z,4.45
2022-09-28T19:23:51.949Z,5.13
2022-09-28T19:26:20.904Z,3.75
2022-09-28T19:28:47.508Z,4.60
2022-09-28T19:31:13.979Z,4.07
2022-09-28T19:33:40.843Z,6.57
2022-09-28T19:36:08.571Z,5.10
2022-09-28T19:38:35.983Z,4.72
2022-09-28T19:41:02.782Z,6.65
2022-09-28T19:43:31.670Z,7.38
2022-09-28T19:46:04.413Z,5.97
2022-09-28T19:48:31.498Z,4.43
2022-09-28T19:50:58.664Z,5.38
2022-09-28T19:53:25.955Z,7.05
2022-09-28T19:55:53.744Z,5.35
2022-09-28T19:58:22.184Z,5.07
2022-09-28T20:00:48.759Z,4.32
2022-09-28T20:03:15.180Z,4.80
2022-09-28T20:05:42.451Z,6.93
2022-09-28T20:08:09.407Z,3.97
2022-09-28T20:10:35.721Z,5.30
2022-09-28T20:13:02.010Z,4.38
2022-09-28T20:15:28.649Z,9.32
2022-09-28T20:17:56.079Z,3.38
2022-09-28T20:20:22.329Z,3.47
2022-09-28T20:22:48.588Z,3.58
2022-09-28T20:25:14.896Z,4.38
2022-09-28T20:27:41.202Z,3.45
2022-09-28T20:30:07.889Z,5.10
2022-09-28T20:32:35.163Z,3.97
2022-09-28T20:35:01.491Z,9.95
2022-09-28T20:37:27.759Z,5.38
2022-09-28T20:39:54.229Z,5.55
2022-09-28T20:42:20.757Z,3.92
2022-09-28T20:44:47.012Z,4.22
2022-09-28T20:47:13.272Z,5.43
2022-09-28T20:49:39.506Z,4.32
2022-09-28T20:52:05.768Z,3.72
2022-09-28T20:54:32.043Z,4.78
2022-09-28T20:56:58.305Z,4.25
2022-09-28T20:59:26.404Z,6.13
2022-09-28T21:01:52.782Z,4.63
2022-09-28T21:04:19.683Z,3.70
2022-09-28T21:06:46.166Z,6.30
2022-09-28T21:09:12.508Z,5.05
2022-09-28T21:11:38.807Z,4.85
2022-09-28T21:14:06.252Z,4.00
2022-09-28T21:16:33.389Z,4.05
2022-09-28T21:18:59.685Z,4.25
2022-09-28T21:21:26.316Z,5.72
2022-09-28T21:23:53.269Z,4.45
2022-09-28T21:26:26.700Z,3.28
2022-09-28T21:28:53.862Z,5.25
2022-09-28T21:31:23.608Z,5.35
2022-09-28T21:33:52.402Z,5.68
2022-09-28T21:36:18.696Z,5.50
2022-09-28T21:38:45.025Z,8.48
2022-09-28T21:41:11.508Z,5.78
2022-09-28T21:43:37.776Z,5.93
2022-09-28T21:46:04.137Z,4.63
2022-09-28T21:48:30.504Z,9.00
2022-09-28T21:50:56.896Z,3.85
2022-09-28T21:53:26.494Z,3.35
2022-09-28T21:55:53.474Z,4.68
2022-09-28T21:58:23.074Z,4.10
2022-09-28T22:00:58.234Z,4.50
2022-09-28T22:03:25.689Z,4.57
2022-09-28T22:05:52.376Z,4.18
2022-09-28T22:08:19.127Z,4.03
2022-09-28T22:10:45.578Z,4.38
2022-09-28T22:13:11.863Z,4.40
2022-09-28T22:15:38.202Z,5.45
2022-09-28T22:18:04.483Z,4.07
2022-09-28T22:20:30.794Z,4.38
2022-09-28T22:22:57.048Z,7.60
2022-09-28T22:25:23.330Z,7.78
2022-09-28T22:27:49.636Z,4.55
2022-09-28T22:30:15.915Z,4.13
2022-09-28T22:32:42.241Z,4.50
2022-09-28T22:35:08.670Z,3.73
2022-09-28T22:37:34.951Z,10.43
2022-09-28T22:40:01.366Z,4.33
2022-09-28T22:42:28.091Z,3.97
2022-09-28T22:44:54.352Z,11.03
2022-09-28T22:47:20.620Z,4.33
2022-09-28T22:49:46.878Z,8.23
2022-09-28T22:52:13.146Z,5.20
2022-09-28T22:54:40.439Z,4.77
2022-09-28T22:57:06.712Z,4.33
2022-09-28T22:59:32.988Z,4.38
2022-09-28T23:01:59.313Z,6.40
2022-09-28T23:04:25.599Z,6.80
2022-09-28T23:06:51.846Z,5.60
2022-09-28T23:09:18.265Z,11.40
2022-09-28T23:11:44.635Z,10.83
2022-09-28T23:14:11.370Z,4.90
2022-09-28T23:16:37.671Z,7.23
2022-09-28T23:19:03.976Z,5.13
2022-09-28T23:21:31.168Z,6.05
2022-09-28T23:23:58.603Z,6.63
2022-09-28T23:26:26.617Z,5.37
2022-09-28T23:28:53.444Z,9.43
2022-09-28T23:31:20.847Z,9.70
2022-09-28T23:33:47.238Z,6.37
2022-09-28T23:36:13.530Z,6.20
2022-09-28T23:38:39.823Z,5.23
2022-09-28T23:41:06.443Z,5.97
2022-09-28T23:43:33.270Z,8.57
2022-09-28T23:45:59.709Z,7.20
2022-09-28T23:48:26.138Z,10.77
2022-09-28T23:50:52.378Z,5.83
2022-09-28T23:53:18.686Z,6.88
2022-09-28T23:55:44.987Z,4.70
2022-09-28T23:58:11.419Z,5.27
